createdAt,value
2019-03-22T00:01:52.152Z,12.00
2019-03-22T00:04:22.692Z,12.00
2019-03-22T00:06:55.021Z,12.40
2019-03-22T00:09:25.478Z,12.10
2019-03-22T00:11:55.844Z,11.90
2019-03-22T00:14:26.229Z,12.20
2019-03-22T00:16:56.553Z,12.00
2019-03-22T00:19:27.561Z,11.70
2019-03-22T00:21:57.919Z,12.00
2019-03-22T00:24:28.488Z,11.90
2019-03-22T00:27:01.198Z,11.30
2019-03-22T00:32:00.999Z,11.90
2019-03-22T00:37:00.829Z,11.10
2019-03-22T00:39:33.391Z,11.70
2019-03-22T00:42:05.964Z,11.50
2019-03-22T00:44:36.027Z,11.40
2019-03-22T00:47:06.504Z,11.90
2019-03-22T00:49:37.102Z,12.30
2019-03-22T00:52:09.008Z,12.20
2019-03-22T00:54:39.579Z,11.80
2019-03-22T00:57:10.151Z,12.00
2019-03-22T00:59:40.717Z,11.80
2019-03-22T01:02:14.016Z,11.90
2019-03-22T01:04:44.740Z,12.60
2019-03-22T01:07:22.934Z,11.90
2019-03-22T01:09:53.584Z,12.10
2019-03-22T01:12:25.853Z,12.00
2019-03-22T01:17:25.799Z,11.70
2019-03-22T01:19:58.218Z,11.60
2019-03-22T01:22:30.199Z,11.50
2019-03-22T01:25:02.934Z,11.60
2019-03-22T01:27:40.494Z,11.80
2019-03-22T01:30:09.075Z,11.90
2019-03-22T01:35:14.664Z,11.70
2019-03-22T01:37:46.216Z,11.60
2019-03-22T01:40:17.359Z,11.80
2019-03-22T01:42:48.890Z,11.70
2019-03-22T01:45:19.291Z,11.90
2019-03-22T01:47:49.780Z,12.10
2019-03-22T01:50:20.778Z,11.80
2019-03-22T01:52:51.539Z,12.10
2019-03-22T01:55:23.961Z,11.80
2019-03-22T01:57:56.745Z,11.50
2019-03-22T02:00:27.146Z,12.10
2019-03-22T02:05:26.918Z,12.00
2019-03-22T02:07:57.189Z,11.50
2019-03-22T02:10:27.609Z,11.60
2019-03-22T02:12:57.973Z,11.50
2019-03-22T02:15:29.769Z,11.60
2019-03-22T02:18:00.288Z,11.40
2019-03-22T02:20:30.997Z,11.70
2019-03-22T02:23:04.128Z,11.40
2019-03-22T02:25:34.552Z,11.70
2019-03-22T02:28:05.078Z,11.60
2019-03-22T02:30:35.344Z,11.40
2019-03-22T02:33:05.739Z,11.70
2019-03-22T02:35:36.018Z,11.60
2019-03-22T02:38:09.042Z,11.60
2019-03-22T02:40:39.368Z,11.20
2019-03-22T02:43:09.884Z,11.80
2019-03-22T02:45:40.307Z,11.60
2019-03-22T02:48:10.636Z,11.40
2019-03-22T02:50:40.959Z,11.60
2019-03-22T02:53:11.512Z,11.60
2019-03-22T02:55:41.789Z,11.60
2019-03-22T02:58:20.498Z,11.90
2019-03-22T03:00:45.813Z,11.40
2019-03-22T03:03:16.096Z,11.40
2019-03-22T03:05:46.418Z,11.40
2019-03-22T03:08:16.911Z,11.10
2019-03-22T03:10:47.275Z,11.20
2019-03-22T03:13:17.923Z,11.20
2019-03-22T03:15:48.126Z,11.30
2019-03-22T03:18:20.722Z,11.30
2019-03-22T03:23:22.860Z,11.30
2019-03-22T03:25:53.478Z,11.30
2019-03-22T03:28:35.956Z,11.10
2019-03-22T03:30:57.561Z,11.30
2019-03-22T03:33:28.359Z,10.90
2019-03-22T03:35:58.766Z,10.90
2019-03-22T03:41:02.592Z,11.20
2019-03-22T03:43:33.037Z,11.10
2019-03-22T03:46:05.583Z,10.90
2019-03-22T03:48:38.287Z,11.10
2019-03-22T03:51:13.898Z,10.90
2019-03-22T03:53:43.394Z,11.00
2019-03-22T03:56:15.084Z,10.80
2019-03-22T03:58:52.642Z,10.90
2019-03-22T04:01:21.499Z,11.00
2019-03-22T04:03:52.408Z,10.80
2019-03-22T04:06:23.042Z,10.90
2019-03-22T04:08:55.940Z,10.90
2019-03-22T04:11:26.327Z,11.00
2019-03-22T04:13:56.784Z,11.00
2019-03-22T04:16:27.253Z,11.00
2019-03-22T04:18:57.684Z,11.00
2019-03-22T04:21:28.414Z,10.80
2019-03-22T04:23:58.814Z,10.80
2019-03-22T04:26:30.711Z,10.90
2019-03-22T04:29:07.478Z,10.90
2019-03-22T04:31:33.408Z,11.20
2019-03-22T04:34:05.250Z,11.20
2019-03-22T04:36:35.719Z,10.80
2019-03-22T04:39:09.132Z,10.70
2019-03-22T04:41:39.890Z,10.80
2019-03-22T04:44:10.413Z,10.90
2019-03-22T04:46:43.413Z,10.80
2019-03-22T04:49:15.356Z,10.70
2019-03-22T04:51:46.420Z,10.70
2019-03-22T04:54:19.538Z,11.00
2019-03-22T04:56:52.297Z,10.80
2019-03-22T04:59:23.848Z,10.90
2019-03-22T05:01:56.531Z,10.80
2019-03-22T05:04:30.722Z,10.60
2019-03-22T05:07:01.677Z,10.50
2019-03-22T05:09:35.104Z,10.60
2019-03-22T05:12:06.374Z,10.40
2019-03-22T05:14:41.874Z,10.60
2019-03-22T05:17:15.990Z,10.60
2019-03-22T05:20:05.763Z,10.70
2019-03-22T05:22:44.968Z,11.30
2019-03-22T05:25:16.039Z,10.50
2019-03-22T05:27:48.909Z,9.90
2019-03-22T05:31:02.971Z,10.50
2019-03-22T05:33:33.706Z,10.50
2019-03-22T05:36:06.569Z,10.30
2019-03-22T05:38:39.481Z,10.50
2019-03-22T05:41:10.137Z,10.30
2019-03-22T05:43:45.069Z,10.60
2019-03-22T05:46:15.614Z,10.20
2019-03-22T05:48:47.133Z,10.40
2019-03-22T05:51:18.833Z,10.60
2019-03-22T05:53:49.258Z,10.10
2019-03-22T05:56:19.819Z,10.40
2019-03-22T05:58:50.552Z,10.60
2019-03-22T06:01:21.003Z,10.60
2019-03-22T06:03:51.541Z,10.90
2019-03-22T06:06:22.190Z,10.80
2019-03-22T06:09:00.249Z,10.40
2019-03-22T06:11:32.036Z,10.40
2019-03-22T06:14:03.803Z,9.80
2019-03-22T06:16:34.473Z,10.50
2019-03-22T06:21:37.261Z,10.40
2019-03-22T06:24:10.494Z,10.60
2019-03-22T06:26:41.137Z,10.80
2019-03-22T06:29:13.086Z,10.40
2019-03-22T06:31:46.953Z,11.00
2019-03-22T06:34:17.401Z,10.40
2019-03-22T06:36:50.139Z,10.90
2019-03-22T06:39:23.557Z,10.80
2019-03-22T06:41:54.267Z,10.70
2019-03-22T06:44:27.220Z,10.60
2019-03-22T06:46:57.767Z,10.80
2019-03-22T06:49:30.695Z,11.00
2019-03-22T06:52:02.116Z,10.80
2019-03-22T06:54:32.675Z,11.20
2019-03-22T06:57:09.305Z,11.10
2019-03-22T06:59:39.745Z,11.10
2019-03-22T07:04:41.978Z,10.80
2019-03-22T07:07:12.705Z,11.10
2019-03-22T07:09:43.122Z,11.40
2019-03-22T07:12:13.747Z,11.50
2019-03-22T07:14:45.081Z,11.20
2019-03-22T07:19:46.596Z,11.30
2019-03-22T07:22:19.848Z,11.00
2019-03-22T07:24:57.920Z,11.30
2019-03-22T07:27:25.647Z,11.40
2019-03-22T07:29:56.256Z,11.20
2019-03-22T07:32:28.217Z,10.60
2019-03-22T07:35:01.027Z,11.10
2019-03-22T07:37:31.487Z,11.30
2019-03-22T07:40:01.945Z,11.50
2019-03-22T07:45:02.296Z,11.20
2019-03-22T07:47:32.895Z,11.60
2019-03-22T07:50:03.419Z,11.20
2019-03-22T07:52:33.988Z,11.40
2019-03-22T07:55:05.064Z,11.40
2019-03-22T07:57:38.907Z,11.20
2019-03-22T08:00:15.822Z,11.30
2019-03-22T08:02:49.108Z,11.60
2019-03-22T08:05:19.495Z,11.90
2019-03-22T08:07:49.806Z,12.30
2019-03-22T08:10:20.096Z,11.20
2019-03-22T08:12:50.425Z,11.00
2019-03-22T08:15:31.804Z,11.30
2019-03-22T08:25:32.558Z,11.10
2019-03-22T08:28:03.191Z,11.30
2019-03-22T08:33:07.385Z,11.80
2019-03-22T08:38:07.091Z,12.00
2019-03-22T08:40:37.810Z,11.60
2019-03-22T08:43:09.707Z,12.00
2019-03-22T08:48:11.258Z,11.10
2019-03-22T08:50:41.776Z,12.00
2019-03-22T08:53:12.480Z,12.40
2019-03-22T08:55:42.774Z,12.30
2019-03-22T08:58:13.438Z,12.50
2019-03-22T09:00:56.674Z,12.40
2019-03-22T09:05:46.386Z,12.30
2019-03-22T09:08:16.677Z,12.90
2019-03-22T09:10:47.097Z,13.10
2019-03-22T09:15:46.772Z,13.20
2019-03-22T09:18:19.915Z,12.60
2019-03-22T09:20:50.277Z,13.80
2019-03-22T09:23:20.814Z,13.50
2019-03-22T09:25:51.108Z,13.60
2019-03-22T09:28:21.534Z,13.00
2019-03-22T09:30:52.014Z,13.40
2019-03-22T09:33:22.390Z,13.80
2019-03-22T09:35:52.680Z,14.20
2019-03-22T09:38:24.027Z,14.10
2019-03-22T09:40:54.372Z,14.30
2019-03-22T09:43:24.605Z,13.80
2019-03-22T09:45:54.845Z,14.20
2019-03-22T09:48:25.061Z,14.40
2019-03-22T09:50:55.330Z,14.40
2019-03-22T09:53:25.872Z,14.40
2019-03-22T09:55:56.255Z,14.50
2019-03-22T09:58:26.638Z,14.30
2019-03-22T10:00:57.066Z,14.00
2019-03-22T10:05:56.827Z,14.10
2019-03-22T10:08:27.199Z,14.50
2019-03-22T10:10:57.439Z,14.40
2019-03-22T10:13:27.815Z,14.70
2019-03-22T10:15:58.158Z,14.40
2019-03-22T10:18:28.494Z,14.40
2019-03-22T10:20:58.949Z,13.90
2019-03-22T10:23:29.141Z,14.00
2019-03-22T10:25:59.511Z,14.30
2019-03-22T10:28:31.340Z,14.20
2019-03-22T10:31:01.752Z,15.10
2019-03-22T10:33:32.149Z,14.10
2019-03-22T10:36:03.958Z,15.00
2019-03-22T10:38:34.243Z,14.50
2019-03-22T10:41:04.598Z,14.30
2019-03-22T10:43:34.835Z,14.30
2019-03-22T10:46:07.861Z,14.20
2019-03-22T10:51:06.344Z,14.40
2019-03-22T10:53:36.622Z,14.70
2019-03-22T10:56:07.291Z,14.40
2019-03-22T10:58:37.637Z,14.60
2019-03-22T11:01:08.693Z,15.00
2019-03-22T11:03:39.486Z,14.20
2019-03-22T11:06:09.885Z,14.60
2019-03-22T11:08:40.517Z,14.20
2019-03-22T11:11:10.766Z,14.40
2019-03-22T11:13:41.051Z,14.80
2019-03-22T11:16:11.742Z,14.80
2019-03-22T11:18:44.640Z,15.60
2019-03-22T11:21:14.921Z,14.40
2019-03-22T11:23:45.175Z,14.80
2019-03-22T11:26:15.608Z,14.80
2019-03-22T11:31:15.125Z,14.70
2019-03-22T11:33:45.414Z,15.10
2019-03-22T11:36:15.645Z,15.60
2019-03-22T11:38:45.910Z,15.60
2019-03-22T11:41:16.221Z,15.70
2019-03-22T11:43:46.802Z,14.90
2019-03-22T11:46:16.966Z,15.50
2019-03-22T11:51:17.066Z,15.50
2019-03-22T11:53:47.317Z,15.10
2019-03-22T11:56:17.775Z,15.30
2019-03-22T11:58:48.245Z,15.10
2019-03-22T12:01:21.278Z,15.10
2019-03-22T12:06:19.870Z,15.00
2019-03-22T12:08:50.308Z,14.50
2019-03-22T12:11:20.776Z,15.00
2019-03-22T12:13:51.059Z,14.60
2019-03-22T12:16:21.398Z,14.70
2019-03-22T12:18:53.041Z,13.70
2019-03-22T12:21:23.392Z,14.90
2019-03-22T12:23:56.350Z,14.10
2019-03-22T12:26:47.064Z,14.90
2019-03-22T12:29:17.690Z,15.30
2019-03-22T12:31:48.165Z,14.70
2019-03-22T12:34:18.560Z,15.40
2019-03-22T12:36:49.016Z,16.10
2019-03-22T12:39:19.411Z,15.30
2019-03-22T12:41:59.565Z,15.40
2019-03-22T12:44:30.069Z,15.80
2019-03-22T12:47:02.223Z,15.30
2019-03-22T12:49:33.215Z,15.30
2019-03-22T12:52:03.713Z,15.20
2019-03-22T12:54:36.476Z,15.30
2019-03-22T12:57:09.615Z,15.80
2019-03-22T12:59:40.005Z,15.40
2019-03-22T13:02:10.535Z,15.40
2019-03-22T13:04:40.891Z,15.60
2019-03-22T13:07:12.428Z,15.70
2019-03-22T13:09:42.671Z,16.10
2019-03-22T13:12:13.232Z,16.50
2019-03-22T13:14:45.879Z,15.90
2019-03-22T13:19:52.167Z,15.20
2019-03-22T13:22:22.589Z,15.90
2019-03-22T13:24:55.901Z,16.00
2019-03-22T13:27:26.268Z,16.60
2019-03-22T13:29:56.830Z,16.20
2019-03-22T13:32:27.283Z,16.20
2019-03-22T13:34:57.671Z,16.20
2019-03-22T13:37:28.091Z,17.10
2019-03-22T13:44:57.571Z,17.90
2019-03-22T13:47:27.928Z,18.50
2019-03-22T13:52:27.948Z,19.40
2019-03-22T13:54:58.440Z,19.20
2019-03-22T13:57:28.879Z,19.30
2019-03-22T13:59:59.256Z,19.70
2019-03-22T14:02:29.696Z,18.80
2019-03-22T14:05:01.814Z,19.00
2019-03-22T14:10:01.699Z,18.10
2019-03-22T14:15:04.578Z,18.00
2019-03-22T14:17:35.167Z,17.70
2019-03-22T14:20:11.086Z,17.00
2019-03-22T14:22:38.988Z,16.90
2019-03-22T14:25:11.573Z,16.50
2019-03-22T14:27:41.986Z,17.00
2019-03-22T14:30:12.559Z,17.00
2019-03-22T14:32:44.590Z,17.00
2019-03-22T14:37:44.183Z,17.20
2019-03-22T14:42:45.449Z,16.60
2019-03-22T14:45:15.967Z,16.50
2019-03-22T14:47:46.249Z,16.70
2019-03-22T14:50:16.733Z,17.00
2019-03-22T14:52:46.978Z,16.60
2019-03-22T14:55:17.582Z,17.10
2019-03-22T15:00:18.923Z,18.30
2019-03-22T15:02:49.170Z,19.90
2019-03-22T15:05:19.502Z,20.50
2019-03-22T15:10:19.218Z,22.40
2019-03-22T15:12:49.548Z,22.30
2019-03-22T15:15:38.792Z,22.90
2019-03-22T15:18:30.268Z,23.80
2019-03-22T15:21:11.973Z,24.20
2019-03-22T15:24:03.686Z,23.60
2019-03-22T15:29:59.306Z,21.60
2019-03-22T15:32:37.477Z,20.30
2019-03-22T15:35:36.084Z,19.30
2019-03-22T15:38:25.267Z,19.10
2019-03-22T15:40:55.679Z,18.80
2019-03-22T15:43:26.152Z,18.20
2019-03-22T15:45:57.571Z,17.70
2019-03-22T15:48:27.942Z,17.20
2019-03-22T15:50:58.226Z,16.70
2019-03-22T15:53:28.550Z,16.60
2019-03-22T15:55:58.842Z,17.10
2019-03-22T16:00:58.854Z,15.80
2019-03-22T16:03:29.248Z,15.80
2019-03-22T16:05:59.552Z,16.30
2019-03-22T16:08:29.914Z,15.00
2019-03-22T16:11:01.497Z,15.30
2019-03-22T16:13:31.802Z,14.90
2019-03-22T16:16:02.482Z,14.20
2019-03-22T16:18:33.173Z,14.80
2019-03-22T16:21:04.246Z,14.10
2019-03-22T16:23:34.614Z,14.10
2019-03-22T16:26:05.092Z,14.50
2019-03-22T16:28:35.294Z,14.50
2019-03-22T16:31:05.839Z,14.00
2019-03-22T16:33:36.071Z,13.80
2019-03-22T16:36:06.365Z,14.10
2019-03-22T16:38:36.916Z,13.80
2019-03-22T16:46:05.850Z,13.70
2019-03-22T16:48:36.262Z,13.50
2019-03-22T16:51:06.736Z,13.40
2019-03-22T16:53:37.404Z,13.40
2019-03-22T16:56:07.703Z,13.70
2019-03-22T17:01:07.947Z,12.30
2019-03-22T17:06:07.730Z,12.70
2019-03-22T17:08:38.230Z,13.20
2019-03-22T17:11:10.508Z,13.30
2019-03-22T17:13:42.199Z,13.20
2019-03-22T17:18:43.689Z,12.80
2019-03-22T17:21:14.090Z,12.00
2019-03-22T17:26:14.229Z,12.90
2019-03-22T17:28:48.364Z,12.90
2019-03-22T17:31:18.587Z,12.40
2019-03-22T17:33:49.041Z,12.10
2019-03-22T17:36:21.988Z,12.60
2019-03-22T17:38:52.589Z,12.50
2019-03-22T17:41:22.929Z,12.60
2019-03-22T17:43:53.618Z,11.80
2019-03-22T17:46:23.976Z,12.90
2019-03-22T17:48:54.251Z,12.20
2019-03-22T17:51:24.623Z,12.40
2019-03-22T17:53:55.262Z,12.10
2019-03-22T17:56:25.541Z,12.30
2019-03-22T17:58:58.486Z,12.30
2019-03-22T18:01:28.940Z,11.70
2019-03-22T18:03:59.479Z,11.80
2019-03-22T18:06:29.786Z,11.80
2019-03-22T18:09:00.076Z,12.60
2019-03-22T18:11:30.585Z,12.00
2019-03-22T18:14:01.033Z,11.90
2019-03-22T18:19:03.317Z,11.40
2019-03-22T18:26:32.464Z,11.40
2019-03-22T18:29:02.896Z,10.70
2019-03-22T18:31:33.374Z,11.40
2019-03-22T18:34:03.758Z,11.70
2019-03-22T18:39:06.718Z,10.50
2019-03-22T18:44:06.526Z,10.80
2019-03-22T18:46:37.068Z,11.20
2019-03-22T18:49:07.943Z,11.20
2019-03-22T18:54:10.153Z,11.30
2019-03-22T18:56:42.488Z,12.00
2019-03-22T18:59:15.871Z,11.20
2019-03-22T19:01:47.262Z,10.90
2019-03-22T19:04:19.207Z,11.50
2019-03-22T19:06:50.810Z,11.30
2019-03-22T19:09:22.171Z,11.30
2019-03-22T19:11:52.639Z,10.70
2019-03-22T19:16:52.614Z,11.00
2019-03-22T19:19:25.693Z,11.10
2019-03-22T19:21:59.313Z,11.20
2019-03-22T19:24:30.211Z,10.60
2019-03-22T19:27:00.787Z,10.50
2019-03-22T19:29:37.001Z,10.90
2019-03-22T19:35:02.433Z,10.80
2019-03-22T19:37:33.058Z,10.80
2019-03-22T19:40:08.347Z,11.50
2019-03-22T19:42:40.311Z,10.80
2019-03-22T19:47:40.406Z,10.90
2019-03-22T19:50:11.146Z,10.50
2019-03-22T19:55:29.397Z,10.70
2019-03-22T19:58:01.832Z,10.20
2019-03-22T20:00:32.443Z,10.30
2019-03-22T20:03:06.512Z,9.90
2019-03-22T20:08:12.785Z,10.30
2019-03-22T20:10:42.895Z,10.70
2019-03-22T20:13:18.156Z,10.20
2019-03-22T20:23:22.053Z,10.10
2019-03-22T20:25:52.786Z,10.50
2019-03-22T20:28:25.557Z,10.60
2019-03-22T20:30:58.966Z,10.00
2019-03-22T20:33:33.272Z,10.20
2019-03-22T20:36:06.236Z,9.30
2019-03-22T20:38:36.846Z,10.40
2019-03-22T20:41:07.518Z,9.80
2019-03-22T20:43:39.633Z,9.80
2019-03-22T20:46:14.128Z,9.80
2019-03-22T20:51:15.927Z,9.80
2019-03-22T20:53:51.227Z,9.80
2019-03-22T20:56:29.046Z,10.70
2019-03-22T20:59:32.425Z,9.90
2019-03-22T21:02:08.403Z,9.30
2019-03-22T21:04:43.636Z,9.60
2019-03-22T21:07:19.501Z,9.80
2019-03-22T21:09:57.409Z,9.80
2019-03-22T21:12:28.094Z,9.60
2019-03-22T21:14:59.894Z,10.00
2019-03-22T21:17:40.653Z,9.70
2019-03-22T21:20:11.848Z,9.30
2019-03-22T21:22:43.736Z,9.80
2019-03-22T21:25:15.677Z,10.30
2019-03-22T21:27:50.348Z,9.20
2019-03-22T21:30:22.519Z,9.40
2019-03-22T21:32:53.428Z,9.40
2019-03-22T21:35:37.159Z,9.30
2019-03-22T21:38:10.342Z,9.70
2019-03-22T21:40:33.636Z,9.70
2019-03-22T21:43:17.894Z,9.00
2019-03-22T21:45:45.623Z,9.00
2019-03-22T21:48:17.520Z,8.70
2019-03-22T21:50:48.072Z,8.70
2019-03-22T21:53:20.138Z,8.60
2019-03-22T21:55:54.294Z,9.00
2019-03-22T21:58:26.490Z,8.40
2019-03-22T22:03:31.063Z,8.80
2019-03-22T22:06:01.688Z,8.50
2019-03-22T22:08:34.134Z,8.50
2019-03-22T22:11:04.986Z,8.50
2019-03-22T22:13:35.551Z,8.50
2019-03-22T22:16:10.883Z,8.70
2019-03-22T22:18:40.333Z,8.60
2019-03-22T22:21:10.810Z,8.20
2019-03-22T22:23:42.782Z,8.10
2019-03-22T22:26:17.617Z,8.10
2019-03-22T22:28:47.962Z,8.20
2019-03-22T22:31:18.739Z,7.90
2019-03-22T22:33:50.810Z,8.10
2019-03-22T22:36:22.962Z,8.00
2019-03-22T22:41:22.823Z,8.40
2019-03-22T22:43:53.370Z,8.40
2019-03-22T22:46:25.163Z,8.00
2019-03-22T22:48:58.169Z,7.80
2019-03-22T22:51:31.067Z,7.80
2019-03-22T22:59:05.124Z,8.30
2019-03-22T23:01:36.959Z,8.50
2019-03-22T23:04:07.372Z,7.70
2019-03-22T23:06:42.351Z,7.90
2019-03-22T23:09:18.004Z,7.90
2019-03-22T23:11:50.548Z,7.90
2019-03-22T23:14:20.517Z,7.90
2019-03-22T23:16:51.149Z,7.80
2019-03-22T23:19:21.548Z,7.70
2019-03-22T23:21:52.012Z,7.00
2019-03-22T23:24:22.445Z,7.40
2019-03-22T23:26:52.912Z,7.60
2019-03-22T23:29:23.179Z,7.60
2019-03-22T23:31:56.204Z,7.70
2019-03-22T23:34:26.572Z,7.60
2019-03-22T23:36:57.038Z,7.40
2019-03-22T23:39:27.599Z,7.50
2019-03-22T23:44:27.362Z,8.60
2019-03-22T23:46:57.883Z,8.60
2019-03-22T23:49:30.562Z,8.00
2019-03-22T23:52:03.213Z,8.60
2019-03-22T23:54:33.659Z,7.70
2019-03-22T23:59:33.490Z,7.60
